Sable: Past 24 Hour Conditions

 

Banquereau - 44139

11:00 AM ADT 23 September 2014Buoy position: 44.27N 57.08W
This table is a summary of hourly weather conditions for the past 24 hours.
Date / Time
(ADT)
Wind(knots) Wave height(m) Wave period(s) Pressure(kPa) Air tempC) Water tempC)
23 September 2014
11:00 WSW 19 gust 23 3.6 10.0 101.7 17 18
10:00 WSW 18 gust 21 3.9 13.0 101.6 18 18
9:00 WSW 18 gust 21 4.1 13.0 101.6 18 18
8:00 WSW 19 gust 23 4.0 12.0 101.5 18 18
7:00 WSW 19 gust 23 3.9 10.0 101.4 19 18
6:00 WSW 16 gust 19 4.0 12.0 101.4 19 18
5:00 WSW 16 gust 21 4.1 10.0 101.3 19 18
4:00 WSW 16 gust 19 4.4 10.0 101.2 20 18
3:00 S 18 gust 19 4.8 11.0 101.2 20 18
2:00 S 14 gust 18 4.3 10.0 101.2 20 18
1:00 S 16 gust 18 3.9 10.0 101.2 20 18
0:00 SSW 14 gust 18 3.9 10.0 101.3 20 18
22 September 2014
23:00 S 16 gust 18 3.6 10.0 101.3 20 18
22:00 SSW 14 gust 16 4.0 11.0 101.3 20 18
21:00 SSW 16 gust 18 4.5 10.0 101.3 20 18
20:00 SSW 16 gust 19 4.3 10.0 101.2 20 18
19:00 SSW 19 gust 25 4.2 10.0 101.2 21 18
18:00 SSW 23 gust 31 4.7 10.0 101.1 21 18
17:00 SSW 23 gust 29 4.7 10.0 101.0 21 18
16:00 SSW 31 gust 39 5.1 10.0 100.9 22 18
15:00 S 33 gust 41 4.5 9.0 100.8 22 18
14:00 S 31 gust 37 4.4 9.0 100.9 22 18
13:00 S 29 gust 35 4.2 9.0 101.0 21 18
12:00 S 27 gust 33 3.9 9.0 101.1 21 18
11:00 SSE 27 gust 33 3.6 8.0 101.2 21 18
 
Map of Atlantic - Newfoundland marine weather areas Southwestern Grand Banks - 44138 Banquereau - 44139 Tail of the Bank - 44140 Nickerson Bank - 44251 Northeast Burgeo Bank - 44255 Blanc-Sablon Airport Cap Whittle Chevery Natashquan Airport Heath Point Miscou Island Grand Étang Ingonish Beach North Mountain St.Paul Island J.A. Douglas McCurdy Sydney Airport Charlottetown Airport East Point North Cape Argentia Bonavista Burgeo Cape Race Corner Brook Daniel's Harbour Englee Ferolle Point La Scie Port aux Basques Rocky Harbour Sagona Island St. Anthony Airport St. John's Int'l Airport St. Lawrence Stephenville Airport Twillingate Winterland Wreckhouse Cartwright Airport Mary's Harbour Grates Cove Pool's Island Marticot Island Long Pond Îles de la Madeleine Airport
Legend: buoyBuoy land stationLand Station